sensor_id;sensor_type;location;lat;lon;timestamp;temperature;humidity
71117;SHT31;58775;46.992;9.518;2024-03-22T00:01:07;9.50;95.46
71117;SHT31;58775;46.992;9.518;2024-03-22T00:03:08;9.46;95.15
71117;SHT31;58775;46.992;9.518;2024-03-22T00:05:09;9.37;96.09
71117;SHT31;58775;46.992;9.518;2024-03-22T00:07:10;9.27;97.24
71117;SHT31;58775;46.992;9.518;2024-03-22T00:09:11;9.34;96.79
71117;SHT31;58775;46.992;9.518;2024-03-22T00:11:11;9.39;95.96
71117;SHT31;58775;46.992;9.518;2024-03-22T00:13:12;9.29;96.62
71117;SHT31;58775;46.992;9.518;2024-03-22T00:15:13;9.33;96.77
71117;SHT31;58775;46.992;9.518;2024-03-22T00:17:14;9.32;96.88
71117;SHT31;58775;46.992;9.518;2024-03-22T00:19:15;9.23;96.65
71117;SHT31;58775;46.992;9.518;2024-03-22T00:21:16;9.25;96.26
71117;SHT31;58775;46.992;9.518;2024-03-22T00:23:16;9.27;95.87
71117;SHT31;58775;46.992;9.518;2024-03-22T00:25:17;9.15;96.80
71117;SHT31;58775;46.992;9.518;2024-03-22T00:27:18;9.05;96.80
71117;SHT31;58775;46.992;9.518;2024-03-22T00:29:19;9.02;96.73
71117;SHT31;58775;46.992;9.518;2024-03-22T00:31:20;9.11;96.80
71117;SHT31;58775;46.992;9.518;2024-03-22T00:33:20;9.15;96.51
71117;SHT31;58775;46.992;9.518;2024-03-22T00:35:21;8.85;96.79
71117;SHT31;58775;46.992;9.518;2024-03-22T00:37:22;8.98;96.70
71117;SHT31;58775;46.992;9.518;2024-03-22T00:39:23;8.89;96.68
71117;SHT31;58775;46.992;9.518;2024-03-22T00:41:24;8.91;96.73
71117;SHT31;58775;46.992;9.518;2024-03-22T00:43:25;8.84;96.46
71117;SHT31;58775;46.992;9.518;2024-03-22T00:45:26;8.86;96.22
71117;SHT31;58775;46.992;9.518;2024-03-22T00:47:26;8.86;96.15
71117;SHT31;58775;46.992;9.518;2024-03-22T00:49:27;8.93;95.51
71117;SHT31;58775;46.992;9.518;2024-03-22T00:51:28;8.78;96.18
71117;SHT31;58775;46.992;9.518;2024-03-22T00:53:29;8.67;97.00
71117;SHT31;58775;46.992;9.518;2024-03-22T00:55:30;8.68;96.78
71117;SHT31;58775;46.992;9.518;2024-03-22T00:57:32;8.69;96.85
71117;SHT31;58775;46.992;9.518;2024-03-22T00:59:33;8.65;96.65
71117;SHT31;58775;46.992;9.518;2024-03-22T01:01:33;8.62;96.46
71117;SHT31;58775;46.992;9.518;2024-03-22T01:03:34;8.61;96.67
71117;SHT31;58775;46.992;9.518;2024-03-22T01:05:36;8.71;95.95
71117;SHT31;58775;46.992;9.518;2024-03-22T01:07:37;8.45;96.37
71117;SHT31;58775;46.992;9.518;2024-03-22T01:09:38;8.40;97.41
71117;SHT31;58775;46.992;9.518;2024-03-22T01:11:39;8.37;96.83
71117;SHT31;58775;46.992;9.518;2024-03-22T01:13:40;8.26;97.20
71117;SHT31;58775;46.992;9.518;2024-03-22T01:15:41;8.21;97.44
71117;SHT31;58775;46.992;9.518;2024-03-22T01:17:42;8.24;97.78
71117;SHT31;58775;46.992;9.518;2024-03-22T01:19:42;8.30;97.19
71117;SHT31;58775;46.992;9.518;2024-03-22T01:21:43;8.27;96.97
71117;SHT31;58775;46.992;9.518;2024-03-22T01:23:44;8.23;97.28
71117;SHT31;58775;46.992;9.518;2024-03-22T01:25:45;8.21;96.87
71117;SHT31;58775;46.992;9.518;2024-03-22T01:27:46;8.19;97.58
71117;SHT31;58775;46.992;9.518;2024-03-22T01:29:47;8.06;97.20
71117;SHT31;58775;46.992;9.518;2024-03-22T01:31:48;8.06;97.80
71117;SHT31;58775;46.992;9.518;2024-03-22T01:33:48;8.21;97.32
71117;SHT31;58775;46.992;9.518;2024-03-22T01:35:49;8.19;96.84
71117;SHT31;58775;46.992;9.518;2024-03-22T01:37:50;8.19;96.91
71117;SHT31;58775;46.992;9.518;2024-03-22T01:39:51;8.10;97.68
71117;SHT31;58775;46.992;9.518;2024-03-22T01:41:51;8.13;97.25
71117;SHT31;58775;46.992;9.518;2024-03-22T01:43:52;8.16;96.96
71117;SHT31;58775;46.992;9.518;2024-03-22T01:45:53;8.13;96.25
71117;SHT31;58775;46.992;9.518;2024-03-22T01:47:54;7.94;96.51
71117;SHT31;58775;46.992;9.518;2024-03-22T01:49:56;7.87;97.33
71117;SHT31;58775;46.992;9.518;2024-03-22T01:51:57;7.93;96.93
71117;SHT31;58775;46.992;9.518;2024-03-22T01:54:01;7.97;96.67
71117;SHT31;58775;46.992;9.518;2024-03-22T01:56:02;7.80;96.41
71117;SHT31;58775;46.992;9.518;2024-03-22T01:58:03;7.79;97.76
71117;SHT31;58775;46.992;9.518;2024-03-22T02:00:05;7.82;97.19
71117;SHT31;58775;46.992;9.518;2024-03-22T02:02:14;7.89;96.74
71117;SHT31;58775;46.992;9.518;2024-03-22T02:04:15;7.87;96.40
71117;SHT31;58775;46.992;9.518;2024-03-22T02:06:16;7.85;96.90
71117;SHT31;58775;46.992;9.518;2024-03-22T02:08:16;7.78;96.90
71117;SHT31;58775;46.992;9.518;2024-03-22T02:10:18;7.80;97.03
71117;SHT31;58775;46.992;9.518;2024-03-22T02:12:18;7.65;96.49
71117;SHT31;58775;46.992;9.518;2024-03-22T02:14:19;7.65;97.33
71117;SHT31;58775;46.992;9.518;2024-03-22T02:16:20;7.66;96.47
71117;SHT31;58775;46.992;9.518;2024-03-22T02:18:21;7.61;96.72
71117;SHT31;58775;46.992;9.518;2024-03-22T02:20:21;7.62;96.60
71117;SHT31;58775;46.992;9.518;2024-03-22T02:22:22;7.62;96.53
71117;SHT31;58775;46.992;9.518;2024-03-22T02:24:25;7.56;96.36
71117;SHT31;58775;46.992;9.518;2024-03-22T02:26:26;7.47;97.21
71117;SHT31;58775;46.992;9.518;2024-03-22T02:28:27;7.47;96.72
71117;SHT31;58775;46.992;9.518;2024-03-22T02:30:28;7.36;96.89
71117;SHT31;58775;46.992;9.518;2024-03-22T02:32:29;7.36;98.08
71117;SHT31;58775;46.992;9.518;2024-03-22T02:34:30;7.34;96.92
71117;SHT31;58775;46.992;9.518;2024-03-22T02:36:31;7.18;96.66
71117;SHT31;58775;46.992;9.518;2024-03-22T02:38:32;7.17;97.75
71117;SHT31;58775;46.992;9.518;2024-03-22T02:40:32;7.25;97.41
71117;SHT31;58775;46.992;9.518;2024-03-22T02:42:33;7.25;96.60
71117;SHT31;58775;46.992;9.518;2024-03-22T02:44:34;7.22;97.64
71117;SHT31;58775;46.992;9.518;2024-03-22T02:46:38;7.19;97.25
71117;SHT31;58775;46.992;9.518;2024-03-22T02:48:39;7.19;96.65
71117;SHT31;58775;46.992;9.518;2024-03-22T02:50:40;7.01;97.47
71117;SHT31;58775;46.992;9.518;2024-03-22T02:52:40;6.94;97.56
71117;SHT31;58775;46.992;9.518;2024-03-22T02:54:41;7.01;97.94
71117;SHT31;58775;46.992;9.518;2024-03-22T02:56:42;6.96;96.95
71117;SHT31;58775;46.992;9.518;2024-03-22T02:58:43;6.83;98.39
71117;SHT31;58775;46.992;9.518;2024-03-22T03:00:44;6.93;98.82
71117;SHT31;58775;46.992;9.518;2024-03-22T03:02:47;6.97;98.23
71117;SHT31;58775;46.992;9.518;2024-03-22T03:04:48;6.96;98.23
71117;SHT31;58775;46.992;9.518;2024-03-22T03:06:49;7.00;98.08
71117;SHT31;58775;46.992;9.518;2024-03-22T03:08:50;6.97;97.30
71117;SHT31;58775;46.992;9.518;2024-03-22T03:10:51;6.90;97.34
71117;SHT31;58775;46.992;9.518;2024-03-22T03:12:53;6.91;97.69
71117;SHT31;58775;46.992;9.518;2024-03-22T03:14:54;6.93;97.84
71117;SHT31;58775;46.992;9.518;2024-03-22T03:16:55;6.91;97.45
71117;SHT31;58775;46.992;9.518;2024-03-22T03:18:56;6.93;97.45
71117;SHT31;58775;46.992;9.518;2024-03-22T03:20:57;6.97;97.24
71117;SHT31;58775;46.992;9.518;2024-03-22T03:22:58;6.93;96.62
71117;SHT31;58775;46.992;9.518;2024-03-22T03:25:00;6.81;97.81
71117;SHT31;58775;46.992;9.518;2024-03-22T03:27:01;6.83;97.57
71117;SHT31;58775;46.992;9.518;2024-03-22T03:29:03;6.88;97.24
71117;SHT31;58775;46.992;9.518;2024-03-22T03:31:04;6.77;97.10
71117;SHT31;58775;46.992;9.518;2024-03-22T03:33:05;6.63;98.02
71117;SHT31;58775;46.992;9.518;2024-03-22T03:35:06;6.59;98.33
71117;SHT31;58775;46.992;9.518;2024-03-22T03:37:06;6.62;97.63
71117;SHT31;58775;46.992;9.518;2024-03-22T03:39:07;6.60;98.04
71117;SHT31;58775;46.992;9.518;2024-03-22T03:41:08;6.67;97.64
71117;SHT31;58775;46.992;9.518;2024-03-22T03:43:09;6.65;97.63
71117;SHT31;58775;46.992;9.518;2024-03-22T03:45:09;6.66;97.87
71117;SHT31;58775;46.992;9.518;2024-03-22T03:47:10;6.72;97.32
71117;SHT31;58775;46.992;9.518;2024-03-22T03:49:11;6.66;97.30
71117;SHT31;58775;46.992;9.518;2024-03-22T03:51:12;6.67;97.30
71117;SHT31;58775;46.992;9.518;2024-03-22T03:53:13;6.62;96.44
71117;SHT31;58775;46.992;9.518;2024-03-22T03:55:14;6.62;96.92
71117;SHT31;58775;46.992;9.518;2024-03-22T03:57:15;6.62;96.83
71117;SHT31;58775;46.992;9.518;2024-03-22T03:59:15;6.52;97.12
71117;SHT31;58775;46.992;9.518;2024-03-22T04:01:16;6.54;97.32
71117;SHT31;58775;46.992;9.518;2024-03-22T04:03:18;6.52;96.95
71117;SHT31;58775;46.992;9.518;2024-03-22T04:05:19;6.50;96.46
71117;SHT31;58775;46.992;9.518;2024-03-22T04:07:21;6.47;97.29
71117;SHT31;58775;46.992;9.518;2024-03-22T04:09:22;6.49;97.23
71117;SHT31;58775;46.992;9.518;2024-03-22T04:11:23;6.49;96.96
71117;SHT31;58775;46.992;9.518;2024-03-22T04:13:25;6.52;96.78
71117;SHT31;58775;46.992;9.518;2024-03-22T04:15:34;6.53;96.98
71117;SHT31;58775;46.992;9.518;2024-03-22T04:17:35;6.46;96.60
71117;SHT31;58775;46.992;9.518;2024-03-22T04:19:35;6.35;96.98
71117;SHT31;58775;46.992;9.518;2024-03-22T04:21:36;6.25;98.78
71117;SHT31;58775;46.992;9.518;2024-03-22T04:23:37;6.25;98.82
71117;SHT31;58775;46.992;9.518;2024-03-22T04:25:38;6.35;98.07
71117;SHT31;58775;46.992;9.518;2024-03-22T04:27:39;6.37;97.46
71117;SHT31;58775;46.992;9.518;2024-03-22T04:29:40;6.22;98.38
71117;SHT31;58775;46.992;9.518;2024-03-22T04:31:41;6.19;98.31
71117;SHT31;58775;46.992;9.518;2024-03-22T04:33:41;6.33;98.03
71117;SHT31;58775;46.992;9.518;2024-03-22T04:35:45;6.26;97.86
71117;SHT31;58775;46.992;9.518;2024-03-22T04:37:46;6.29;98.12
71117;SHT31;58775;46.992;9.518;2024-03-22T04:39:47;6.25;97.96
71117;SHT31;58775;46.992;9.518;2024-03-22T04:41:47;6.28;98.46
71117;SHT31;58775;46.992;9.518;2024-03-22T04:43:48;6.33;97.82
71117;SHT31;58775;46.992;9.518;2024-03-22T04:45:50;6.22;97.48
71117;SHT31;58775;46.992;9.518;2024-03-22T04:47:51;6.12;98.73
71117;SHT31;58775;46.992;9.518;2024-03-22T04:49:52;6.22;98.77
71117;SHT31;58775;46.992;9.518;2024-03-22T04:51:52;6.30;97.96
71117;SHT31;58775;46.992;9.518;2024-03-22T04:53:53;6.25;98.46
71117;SHT31;58775;46.992;9.518;2024-03-22T04:55:54;6.32;98.35
71117;SHT31;58775;46.992;9.518;2024-03-22T04:57:55;6.35;97.84
71117;SHT31;58775;46.992;9.518;2024-03-22T04:59:56;6.43;97.33
71117;SHT31;58775;46.992;9.518;2024-03-22T05:01:56;6.35;97.97
71117;SHT31;58775;46.992;9.518;2024-03-22T05:03:57;6.33;97.71
71117;SHT31;58775;46.992;9.518;2024-03-22T05:05:58;6.29;97.17
71117;SHT31;58775;46.992;9.518;2024-03-22T05:08:01;6.21;97.75
71117;SHT31;58775;46.992;9.518;2024-03-22T05:10:03;6.21;98.27
71117;SHT31;58775;46.992;9.518;2024-03-22T05:12:04;6.26;97.40
71117;SHT31;58775;46.992;9.518;2024-03-22T05:14:05;6.24;97.42
71117;SHT31;58775;46.992;9.518;2024-03-22T05:16:06;6.24;97.13
71117;SHT31;58775;46.992;9.518;2024-03-22T05:18:07;6.19;97.71
71117;SHT31;58775;46.992;9.518;2024-03-22T05:20:09;6.25;97.48
71117;SHT31;58775;46.992;9.518;2024-03-22T05:22:11;6.01;97.74
71117;SHT31;58775;46.992;9.518;2024-03-22T05:24:12;6.05;98.61
71117;SHT31;58775;46.992;9.518;2024-03-22T05:26:13;6.01;98.07
71117;SHT31;58775;46.992;9.518;2024-03-22T05:28:13;6.05;98.66
71117;SHT31;58775;46.992;9.518;2024-03-22T05:30:14;6.14;98.33
71117;SHT31;58775;46.992;9.518;2024-03-22T05:32:15;6.22;98.22
71117;SHT31;58775;46.992;9.518;2024-03-22T05:34:16;6.26;98.13
71117;SHT31;58775;46.992;9.518;2024-03-22T05:36:17;6.29;97.85
71117;SHT31;58775;46.992;9.518;2024-03-22T05:38:18;6.36;98.01
71117;SHT31;58775;46.992;9.518;2024-03-22T05:40:19;6.35;98.03
71117;SHT31;58775;46.992;9.518;2024-03-22T05:42:19;6.40;98.81
71117;SHT31;58775;46.992;9.518;2024-03-22T05:44:23;6.45;98.72
71117;SHT31;58775;46.992;9.518;2024-03-22T05:46:24;6.54;98.27
71117;SHT31;58775;46.992;9.518;2024-03-22T05:48:25;6.56;97.78
71117;SHT31;58775;46.992;9.518;2024-03-22T05:50:26;6.60;97.73
71117;SHT31;58775;46.992;9.518;2024-03-22T05:52:27;6.63;98.43
71117;SHT31;58775;46.992;9.518;2024-03-22T05:54:28;6.62;97.62
71117;SHT31;58775;46.992;9.518;2024-03-22T05:56:29;6.66;97.80
71117;SHT31;58775;46.992;9.518;2024-03-22T05:58:30;6.70;96.59
71117;SHT31;58775;46.992;9.518;2024-03-22T06:00:41;6.83;96.78
71117;SHT31;58775;46.992;9.518;2024-03-22T06:02:42;7.01;96.67
71117;SHT31;58775;46.992;9.518;2024-03-22T06:04:45;7.00;96.28
71117;SHT31;58775;46.992;9.518;2024-03-22T06:26:46;9.69;84.46
71117;SHT31;58775;46.992;9.518;2024-03-22T06:38:03;10.26;80.38
71117;SHT31;58775;46.992;9.518;2024-03-22T06:40:06;10.29;80.76
71117;SHT31;58775;46.992;9.518;2024-03-22T06:42:12;10.29;80.58
71117;SHT31;58775;46.992;9.518;2024-03-22T06:44:16;10.19;80.16
71117;SHT31;58775;46.992;9.518;2024-03-22T06:46:36;10.08;80.49
71117;SHT31;58775;46.992;9.518;2024-03-22T06:48:40;10.14;80.10
71117;SHT31;58775;46.992;9.518;2024-03-22T06:51:23;10.26;79.45
71117;SHT31;58775;46.992;9.518;2024-03-22T06:53:27;10.36;78.84
71117;SHT31;58775;46.992;9.518;2024-03-22T06:55:37;10.55;77.75
71117;SHT31;58775;46.992;9.518;2024-03-22T06:57:38;10.63;76.91
71117;SHT31;58775;46.992;9.518;2024-03-22T06:59:39;10.75;77.57
71117;SHT31;58775;46.992;9.518;2024-03-22T07:01:41;10.83;76.84
71117;SHT31;58775;46.992;9.518;2024-03-22T07:03:43;10.92;77.03
71117;SHT31;58775;46.992;9.518;2024-03-22T07:05:56;10.95;76.75
71117;SHT31;58775;46.992;9.518;2024-03-22T07:08:03;11.04;77.06
71117;SHT31;58775;46.992;9.518;2024-03-22T07:13:37;11.45;75.65
71117;SHT31;58775;46.992;9.518;2024-03-22T07:22:10;12.65;72.63
71117;SHT31;58775;46.992;9.518;2024-03-22T07:48:02;14.04;67.62
71117;SHT31;58775;46.992;9.518;2024-03-22T07:50:04;13.51;68.80
71117;SHT31;58775;46.992;9.518;2024-03-22T07:52:05;13.77;69.42
71117;SHT31;58775;46.992;9.518;2024-03-22T07:54:06;13.77;68.42
71117;SHT31;58775;46.992;9.518;2024-03-22T07:56:07;14.17;68.94
71117;SHT31;58775;46.992;9.518;2024-03-22T07:58:08;14.55;68.35
71117;SHT31;58775;46.992;9.518;2024-03-22T08:00:09;14.60;67.57
71117;SHT31;58775;46.992;9.518;2024-03-22T08:02:13;14.79;66.78
71117;SHT31;58775;46.992;9.518;2024-03-22T08:04:14;14.81;66.33
71117;SHT31;58775;46.992;9.518;2024-03-22T08:06:15;14.89;67.16
71117;SHT31;58775;46.992;9.518;2024-03-22T08:08:16;15.06;65.58
71117;SHT31;58775;46.992;9.518;2024-03-22T08:10:21;14.99;65.66
71117;SHT31;58775;46.992;9.518;2024-03-22T08:12:22;15.15;64.83
71117;SHT31;58775;46.992;9.518;2024-03-22T08:24:37;16.33;61.54
71117;SHT31;58775;46.992;9.518;2024-03-22T08:26:41;16.30;60.90
71117;SHT31;58775;46.992;9.518;2024-03-22T08:28:46;16.53;61.08
71117;SHT31;58775;46.992;9.518;2024-03-22T08:30:47;16.48;60.30
71117;SHT31;58775;46.992;9.518;2024-03-22T08:32:48;16.62;60.30
71117;SHT31;58775;46.992;9.518;2024-03-22T08:34:50;16.66;59.98
71117;SHT31;58775;46.992;9.518;2024-03-22T08:36:50;16.91;60.03
71117;SHT31;58775;46.992;9.518;2024-03-22T08:38:51;16.97;60.70
71117;SHT31;58775;46.992;9.518;2024-03-22T08:40:52;17.21;59.56
71117;SHT31;58775;46.992;9.518;2024-03-22T08:42:53;16.86;59.58
71117;SHT31;58775;46.992;9.518;2024-03-22T08:44:53;17.00;60.30
71117;SHT31;58775;46.992;9.518;2024-03-22T08:46:54;17.17;60.43
71117;SHT31;58775;46.992;9.518;2024-03-22T08:48:55;17.40;59.93
71117;SHT31;58775;46.992;9.518;2024-03-22T08:50:56;17.14;59.57
71117;SHT31;58775;46.992;9.518;2024-03-22T08:52:56;17.04;59.84
71117;SHT31;58775;46.992;9.518;2024-03-22T08:54:57;17.47;58.35
71117;SHT31;58775;46.992;9.518;2024-03-22T08:56:58;17.72;57.93
71117;SHT31;58775;46.992;9.518;2024-03-22T08:58:59;17.88;57.28
71117;SHT31;58775;46.992;9.518;2024-03-22T09:01:00;17.88;56.28
71117;SHT31;58775;46.992;9.518;2024-03-22T09:03:00;17.70;57.15
71117;SHT31;58775;46.992;9.518;2024-03-22T09:05:01;17.92;56.88
71117;SHT31;58775;46.992;9.518;2024-03-22T09:07:02;17.99;57.33
71117;SHT31;58775;46.992;9.518;2024-03-22T09:09:03;18.23;57.43
71117;SHT31;58775;46.992;9.518;2024-03-22T09:11:04;18.37;56.28
71117;SHT31;58775;46.992;9.518;2024-03-22T09:13:05;18.42;56.08
71117;SHT31;58775;46.992;9.518;2024-03-22T09:15:06;18.25;56.88
71117;SHT31;58775;46.992;9.518;2024-03-22T09:17:07;18.46;54.39
71117;SHT31;58775;46.992;9.518;2024-03-22T09:19:08;18.60;56.19
71117;SHT31;58775;46.992;9.518;2024-03-22T09:21:11;18.70;53.61
71117;SHT31;58775;46.992;9.518;2024-03-22T09:23:12;18.77;54.19
71117;SHT31;58775;46.992;9.518;2024-03-22T09:25:13;18.88;53.68
71117;SHT31;58775;46.992;9.518;2024-03-22T09:27:14;19.03;54.33
71117;SHT31;58775;46.992;9.518;2024-03-22T09:29:15;19.12;52.67
71117;SHT31;58775;46.992;9.518;2024-03-22T09:31:16;19.39;53.30
71117;SHT31;58775;46.992;9.518;2024-03-22T09:33:17;19.26;53.57
71117;SHT31;58775;46.992;9.518;2024-03-22T09:35:18;19.46;52.67
71117;SHT31;58775;46.992;9.518;2024-03-22T09:37:19;19.83;54.03
71117;SHT31;58775;46.992;9.518;2024-03-22T09:39:21;19.59;52.07
71117;SHT31;58775;46.992;9.518;2024-03-22T09:41:24;19.72;53.49
71117;SHT31;58775;46.992;9.518;2024-03-22T09:43:27;20.03;52.31
71117;SHT31;58775;46.992;9.518;2024-03-22T09:45:29;20.14;52.34
71117;SHT31;58775;46.992;9.518;2024-03-22T09:47:32;20.31;51.07
71117;SHT31;58775;46.992;9.518;2024-03-22T09:49:34;20.77;51.54
71117;SHT31;58775;46.992;9.518;2024-03-22T09:51:37;20.91;51.38
71117;SHT31;58775;46.992;9.518;2024-03-22T09:53:39;20.99;50.62
71117;SHT31;58775;46.992;9.518;2024-03-22T09:55:40;21.37;50.15
71117;SHT31;58775;46.992;9.518;2024-03-22T09:57:44;21.39;49.35
71117;SHT31;58775;46.992;9.518;2024-03-22T09:59:46;21.66;48.76
71117;SHT31;58775;46.992;9.518;2024-03-22T10:01:46;21.73;49.99
71117;SHT31;58775;46.992;9.518;2024-03-22T10:03:48;21.70;48.26
71117;SHT31;58775;46.992;9.518;2024-03-22T10:05:51;21.64;48.82
71117;SHT31;58775;46.992;9.518;2024-03-22T10:07:51;21.22;50.05
71117;SHT31;58775;46.992;9.518;2024-03-22T10:09:57;21.74;48.32
71117;SHT31;58775;46.992;9.518;2024-03-22T10:11:58;21.76;47.40
71117;SHT31;58775;46.992;9.518;2024-03-22T10:14:00;21.60;47.44
71117;SHT31;58775;46.992;9.518;2024-03-22T10:16:01;21.51;47.24
71117;SHT31;58775;46.992;9.518;2024-03-22T10:18:03;21.47;47.99
71117;SHT31;58775;46.992;9.518;2024-03-22T10:20:05;22.02;48.02
71117;SHT31;58775;46.992;9.518;2024-03-22T10:22:15;21.80;44.76
71117;SHT31;58775;46.992;9.518;2024-03-22T10:24:18;21.56;44.65
71117;SHT31;58775;46.992;9.518;2024-03-22T10:26:19;21.29;45.41
71117;SHT31;58775;46.992;9.518;2024-03-22T10:28:20;21.20;45.72
71117;SHT31;58775;46.992;9.518;2024-03-22T10:30:22;21.30;45.63
71117;SHT31;58775;46.992;9.518;2024-03-22T10:32:25;21.03;45.98
71117;SHT31;58775;46.992;9.518;2024-03-22T10:34:26;21.32;45.76
71117;SHT31;58775;46.992;9.518;2024-03-22T10:36:27;21.13;44.42
71117;SHT31;58775;46.992;9.518;2024-03-22T10:38:29;20.99;45.57
71117;SHT31;58775;46.992;9.518;2024-03-22T10:40:31;21.22;46.71
71117;SHT31;58775;46.992;9.518;2024-03-22T10:42:33;21.08;45.73
71117;SHT31;58775;46.992;9.518;2024-03-22T10:44:35;20.88;45.70
71117;SHT31;58775;46.992;9.518;2024-03-22T10:46:36;21.19;45.28
71117;SHT31;58775;46.992;9.518;2024-03-22T10:48:39;21.08;46.08
71117;SHT31;58775;46.992;9.518;2024-03-22T10:50:43;21.53;46.77
71117;SHT31;58775;46.992;9.518;2024-03-22T10:52:50;21.76;44.58
71117;SHT31;58775;46.992;9.518;2024-03-22T10:54:53;22.01;44.02
71117;SHT31;58775;46.992;9.518;2024-03-22T10:56:55;22.08;43.14
71117;SHT31;58775;46.992;9.518;2024-03-22T10:58:56;22.17;44.07
71117;SHT31;58775;46.992;9.518;2024-03-22T11:00:56;22.34;43.28
71117;SHT31;58775;46.992;9.518;2024-03-22T11:02:58;22.14;44.16
71117;SHT31;58775;46.992;9.518;2024-03-22T11:04:59;22.52;44.01
71117;SHT31;58775;46.992;9.518;2024-03-22T11:07:00;22.52;42.90
71117;SHT31;58775;46.992;9.518;2024-03-22T11:09:01;23.02;43.51
71117;SHT31;58775;46.992;9.518;2024-03-22T11:11:11;23.19;43.38
71117;SHT31;58775;46.992;9.518;2024-03-22T11:13:12;23.21;44.52
71117;SHT31;58775;46.992;9.518;2024-03-22T11:15:12;23.06;43.98
71117;SHT31;58775;46.992;9.518;2024-03-22T11:17:14;23.26;43.71
71117;SHT31;58775;46.992;9.518;2024-03-22T11:19:15;23.58;44.21
71117;SHT31;58775;46.992;9.518;2024-03-22T11:21:17;22.90;44.99
71117;SHT31;58775;46.992;9.518;2024-03-22T11:23:18;23.51;44.27
71117;SHT31;58775;46.992;9.518;2024-03-22T11:25:19;23.51;43.75
71117;SHT31;58775;46.992;9.518;2024-03-22T11:27:20;23.74;42.54
71117;SHT31;58775;46.992;9.518;2024-03-22T11:29:21;24.08;41.26
71117;SHT31;58775;46.992;9.518;2024-03-22T11:31:22;24.06;41.43
71117;SHT31;58775;46.992;9.518;2024-03-22T11:33:30;24.30;41.43
71117;SHT31;58775;46.992;9.518;2024-03-22T11:35:31;24.06;41.52
71117;SHT31;58775;46.992;9.518;2024-03-22T11:37:32;23.85;41.24
71117;SHT31;58775;46.992;9.518;2024-03-22T11:39:33;23.92;41.83
71117;SHT31;58775;46.992;9.518;2024-03-22T11:41:35;23.97;38.42
71117;SHT31;58775;46.992;9.518;2024-03-22T11:43:37;24.04;40.32
71117;SHT31;58775;46.992;9.518;2024-03-22T11:45:38;23.88;39.54
71117;SHT31;58775;46.992;9.518;2024-03-22T11:47:39;23.74;39.03
71117;SHT31;58775;46.992;9.518;2024-03-22T11:49:39;24.01;38.29
71117;SHT31;58775;46.992;9.518;2024-03-22T11:51:40;24.01;39.81
71117;SHT31;58775;46.992;9.518;2024-03-22T11:53:51;23.82;37.64
71117;SHT31;58775;46.992;9.518;2024-03-22T11:55:53;23.95;37.51
71117;SHT31;58775;46.992;9.518;2024-03-22T11:57:53;23.98;39.68
71117;SHT31;58775;46.992;9.518;2024-03-22T12:00:01;24.01;38.34
71117;SHT31;58775;46.992;9.518;2024-03-22T12:02:12;24.04;38.34
71117;SHT31;58775;46.992;9.518;2024-03-22T12:04:13;23.91;39.39
71117;SHT31;58775;46.992;9.518;2024-03-22T12:06:17;23.62;39.45
71117;SHT31;58775;46.992;9.518;2024-03-22T12:08:18;23.72;37.17
71117;SHT31;58775;46.992;9.518;2024-03-22T12:10:19;24.29;36.03
71117;SHT31;58775;46.992;9.518;2024-03-22T12:12:21;24.40;35.59
71117;SHT31;58775;46.992;9.518;2024-03-22T12:14:23;24.64;34.08
71117;SHT31;58775;46.992;9.518;2024-03-22T12:16:24;24.73;33.78
71117;SHT31;58775;46.992;9.518;2024-03-22T12:18:24;24.66;35.81
71117;SHT31;58775;46.992;9.518;2024-03-22T12:20:25;24.90;34.02
71117;SHT31;58775;46.992;9.518;2024-03-22T12:22:26;25.51;36.63
71117;SHT31;58775;46.992;9.518;2024-03-22T12:24:27;25.54;34.84
71117;SHT31;58775;46.992;9.518;2024-03-22T12:26:28;25.49;32.47
71117;SHT31;58775;46.992;9.518;2024-03-22T12:28:29;25.90;34.32
71117;SHT31;58775;46.992;9.518;2024-03-22T12:30:30;25.88;34.81
71117;SHT31;58775;46.992;9.518;2024-03-22T12:32:31;25.78;35.50
71117;SHT31;58775;46.992;9.518;2024-03-22T12:34:32;25.72;34.55
71117;SHT31;58775;46.992;9.518;2024-03-22T12:36:33;25.85;33.93
71117;SHT31;58775;46.992;9.518;2024-03-22T12:38:34;26.43;33.52
71117;SHT31;58775;46.992;9.518;2024-03-22T12:40:35;26.51;33.73
71117;SHT31;58775;46.992;9.518;2024-03-22T12:42:36;26.68;33.44
71117;SHT31;58775;46.992;9.518;2024-03-22T12:44:37;27.12;32.26
71117;SHT31;58775;46.992;9.518;2024-03-22T12:46:37;27.01;29.65
71117;SHT31;58775;46.992;9.518;2024-03-22T12:48:38;27.34;32.42
71117;SHT31;58775;46.992;9.518;2024-03-22T12:50:39;27.77;33.40
71117;SHT31;58775;46.992;9.518;2024-03-22T12:52:40;27.93;30.69
71117;SHT31;58775;46.992;9.518;2024-03-22T12:54:41;27.93;29.83
71117;SHT31;58775;46.992;9.518;2024-03-22T12:56:41;28.17;28.74
71117;SHT31;58775;46.992;9.518;2024-03-22T12:58:42;28.03;27.61
71117;SHT31;58775;46.992;9.518;2024-03-22T13:00:43;27.12;29.96
71117;SHT31;58775;46.992;9.518;2024-03-22T13:02:45;27.41;35.82
71117;SHT31;58775;46.992;9.518;2024-03-22T13:04:46;26.00;42.57
71117;SHT31;58775;46.992;9.518;2024-03-22T13:06:47;26.77;40.68
71117;SHT31;58775;46.992;9.518;2024-03-22T13:08:49;27.26;39.72
71117;SHT31;58775;46.992;9.518;2024-03-22T13:10:50;27.26;38.05
71117;SHT31;58775;46.992;9.518;2024-03-22T13:12:51;26.99;38.82
71117;SHT31;58775;46.992;9.518;2024-03-22T13:14:52;26.26;36.94
71117;SHT31;58775;46.992;9.518;2024-03-22T13:16:53;26.32;39.73
71117;SHT31;58775;46.992;9.518;2024-03-22T13:18:54;26.13;36.93
71117;SHT31;58775;46.992;9.518;2024-03-22T13:20:55;26.03;39.34
71117;SHT31;58775;46.992;9.518;2024-03-22T13:22:56;24.83;44.78
71117;SHT31;58775;46.992;9.518;2024-03-22T13:24:57;24.21;46.20
71117;SHT31;58775;46.992;9.518;2024-03-22T13:26:58;24.39;48.19
71117;SHT31;58775;46.992;9.518;2024-03-22T13:28:58;24.16;47.35
71117;SHT31;58775;46.992;9.518;2024-03-22T13:31:03;23.85;48.48
71117;SHT31;58775;46.992;9.518;2024-03-22T13:33:06;24.35;45.45
71117;SHT31;58775;46.992;9.518;2024-03-22T13:35:08;24.69;44.19
71117;SHT31;58775;46.992;9.518;2024-03-22T13:37:09;24.28;48.51
71117;SHT31;58775;46.992;9.518;2024-03-22T13:39:10;24.60;46.11
71117;SHT31;58775;46.992;9.518;2024-03-22T13:41:11;24.91;43.94
71117;SHT31;58775;46.992;9.518;2024-03-22T13:43:12;24.29;49.46
71117;SHT31;58775;46.992;9.518;2024-03-22T13:45:13;23.72;51.31
71117;SHT31;58775;46.992;9.518;2024-03-22T13:47:13;23.11;51.90
71117;SHT31;58775;46.992;9.518;2024-03-22T13:49:16;23.36;49.24
71117;SHT31;58775;46.992;9.518;2024-03-22T13:51:17;24.33;44.41
71117;SHT31;58775;46.992;9.518;2024-03-22T13:53:18;22.85;50.95
71117;SHT31;58775;46.992;9.518;2024-03-22T13:55:19;23.27;48.86
71117;SHT31;58775;46.992;9.518;2024-03-22T13:57:20;22.51;53.05
71117;SHT31;58775;46.992;9.518;2024-03-22T13:59:21;21.93;55.22
71117;SHT31;58775;46.992;9.518;2024-03-22T14:01:22;23.20;50.80
71117;SHT31;58775;46.992;9.518;2024-03-22T14:03:22;22.51;52.25
71117;SHT31;58775;46.992;9.518;2024-03-22T14:05:23;21.87;53.66
71117;SHT31;58775;46.992;9.518;2024-03-22T14:07:24;20.95;56.48